createdAt,value
2023-06-23T00:00:10.798Z,355.00
2023-06-23T00:01:10.843Z,356.00
2023-06-23T00:02:10.789Z,357.00
2023-06-23T00:03:10.860Z,357.00
2023-06-23T00:04:10.893Z,355.00
2023-06-23T00:05:10.771Z,354.00
2023-06-23T00:06:10.786Z,355.00
2023-06-23T00:07:10.773Z,356.00
2023-06-23T00:08:10.768Z,354.00
2023-06-23T00:09:10.784Z,354.00
2023-06-23T00:10:10.781Z,354.00
2023-06-23T00:11:10.829Z,354.00
2023-06-23T00:12:10.760Z,355.00
2023-06-23T00:13:10.784Z,356.00
2023-06-23T00:14:10.753Z,355.00
2023-06-23T00:15:10.747Z,355.00
2023-06-23T00:16:10.726Z,355.00
2023-06-23T00:17:10.763Z,356.00
2023-06-23T00:18:10.758Z,356.00
2023-06-23T00:19:10.745Z,355.00
2023-06-23T00:20:10.754Z,356.00
2023-06-23T00:21:10.711Z,354.00
2023-06-23T00:22:10.725Z,355.00
2023-06-23T00:23:10.733Z,356.00
2023-06-23T00:24:10.745Z,356.00
2023-06-23T00:25:10.758Z,356.00
2023-06-23T00:26:10.719Z,358.00
2023-06-23T00:27:10.717Z,360.00
2023-06-23T00:28:11.537Z,363.00
2023-06-23T00:29:10.698Z,362.00
2023-06-23T00:30:10.702Z,363.00
2023-06-23T00:31:10.739Z,364.00
2023-06-23T00:32:10.678Z,363.00
2023-06-23T00:33:10.714Z,362.00
2023-06-23T00:34:10.752Z,362.00
2023-06-23T00:35:10.667Z,362.00
2023-06-23T00:36:10.680Z,360.00
2023-06-23T00:37:10.673Z,359.00
2023-06-23T00:38:10.724Z,357.00
2023-06-23T00:39:10.704Z,357.00
2023-06-23T00:40:10.659Z,358.00
2023-06-23T00:41:10.676Z,358.00
2023-06-23T00:42:10.645Z,356.00
2023-06-23T00:43:10.678Z,358.00
2023-06-23T00:44:10.667Z,357.00
2023-06-23T00:45:10.658Z,357.00
2023-06-23T00:46:10.661Z,357.00
2023-06-23T00:47:10.658Z,358.00
2023-06-23T00:48:10.680Z,358.00
2023-06-23T00:49:10.668Z,360.00
2023-06-23T00:50:10.634Z,358.00
2023-06-23T00:51:10.640Z,359.00
2023-06-23T00:52:10.630Z,359.00
2023-06-23T00:53:10.654Z,359.00
2023-06-23T00:54:10.632Z,357.00
2023-06-23T00:55:10.615Z,358.00
2023-06-23T00:56:10.624Z,357.00
2023-06-23T00:57:10.614Z,353.00
2023-06-23T00:58:10.685Z,354.00
2023-06-23T00:59:10.705Z,355.00
2023-06-23T01:00:10.760Z,356.00
2023-06-23T01:01:10.839Z,358.00
2023-06-23T01:02:10.887Z,359.00
2023-06-23T01:03:11.157Z,356.00
2023-06-23T01:04:11.002Z,354.00
2023-06-23T01:05:10.925Z,352.00
2023-06-23T01:06:10.928Z,353.00
2023-06-23T01:07:10.935Z,352.00
2023-06-23T01:08:10.927Z,352.00
2023-06-23T01:09:10.935Z,354.00
2023-06-23T01:10:10.910Z,354.00
2023-06-23T01:11:10.889Z,354.00
2023-06-23T01:12:10.899Z,353.00
2023-06-23T01:13:10.913Z,353.00
2023-06-23T01:14:10.930Z,355.00
2023-06-23T01:15:10.915Z,355.00
2023-06-23T01:16:10.966Z,356.00
2023-06-23T01:17:10.919Z,356.00
2023-06-23T01:18:10.917Z,353.00
2023-06-23T01:19:10.914Z,352.00
2023-06-23T01:20:10.937Z,350.00
2023-06-23T01:21:10.921Z,349.00
2023-06-23T01:22:10.935Z,349.00
2023-06-23T01:23:10.918Z,349.00
2023-06-23T01:24:10.951Z,349.00
2023-06-23T01:25:10.936Z,349.00
2023-06-23T01:26:11.042Z,347.00
2023-06-23T01:27:10.934Z,348.00
2023-06-23T01:28:10.955Z,347.00
2023-06-23T01:29:10.940Z,347.00
2023-06-23T01:30:10.971Z,347.00
2023-06-23T01:31:10.954Z,348.00
2023-06-23T01:32:11.003Z,347.00
2023-06-23T01:33:10.946Z,348.00
2023-06-23T01:34:10.958Z,349.00
2023-06-23T01:35:10.945Z,351.00
2023-06-23T01:36:10.973Z,351.00
2023-06-23T01:37:10.965Z,351.00
2023-06-23T01:38:10.982Z,352.00
2023-06-23T01:39:10.987Z,351.00
2023-06-23T01:40:10.975Z,351.00
2023-06-23T01:41:10.989Z,349.00
2023-06-23T01:42:11.009Z,349.00
2023-06-23T01:43:10.989Z,350.00
2023-06-23T01:44:11.005Z,351.00
2023-06-23T01:45:10.998Z,353.00
2023-06-23T01:46:11.046Z,352.00
2023-06-23T01:47:11.032Z,351.00
2023-06-23T01:48:11.014Z,351.00
2023-06-23T01:49:11.016Z,352.00
2023-06-23T01:50:11.048Z,352.00
2023-06-23T01:51:11.071Z,349.00
2023-06-23T01:52:11.032Z,348.00
2023-06-23T01:53:11.094Z,349.00
2023-06-23T01:54:11.099Z,347.00
2023-06-23T01:55:11.075Z,348.00
2023-06-23T01:56:11.090Z,347.00
2023-06-23T01:57:11.092Z,346.00
2023-06-23T01:58:11.089Z,346.00
2023-06-23T01:59:11.094Z,346.00
2023-06-23T02:00:11.096Z,345.00
2023-06-23T02:01:11.148Z,348.00
2023-06-23T02:02:11.141Z,350.00
2023-06-23T02:03:11.278Z,350.00
2023-06-23T02:04:11.303Z,349.00
2023-06-23T02:05:11.114Z,347.00
2023-06-23T02:06:11.139Z,348.00
2023-06-23T02:07:11.122Z,346.00
2023-06-23T02:08:11.135Z,344.00
2023-06-23T02:09:11.156Z,344.00
2023-06-23T02:10:11.128Z,344.00
2023-06-23T02:11:11.160Z,343.00
2023-06-23T02:12:11.161Z,344.00
2023-06-23T02:13:11.157Z,346.00
2023-06-23T02:14:11.183Z,345.00
2023-06-23T02:15:11.175Z,345.00
2023-06-23T02:16:11.156Z,344.00
2023-06-23T02:17:12.174Z,344.00
2023-06-23T02:18:11.191Z,345.00
2023-06-23T02:19:11.168Z,343.00
2023-06-23T02:20:11.230Z,344.00
2023-06-23T02:21:11.205Z,343.00
2023-06-23T02:22:11.173Z,342.00
2023-06-23T02:23:11.187Z,342.00
2023-06-23T02:24:11.205Z,341.00
2023-06-23T02:25:11.205Z,341.00
2023-06-23T02:26:11.211Z,339.00
2023-06-23T02:27:11.219Z,341.00
2023-06-23T02:28:11.222Z,342.00
2023-06-23T02:29:11.250Z,342.00
2023-06-23T02:30:11.234Z,345.00
2023-06-23T02:31:11.282Z,345.00
2023-06-23T02:32:11.224Z,346.00
2023-06-23T02:33:11.222Z,346.00
2023-06-23T02:34:11.251Z,345.00
2023-06-23T02:35:11.231Z,346.00
2023-06-23T02:36:11.235Z,346.00
2023-06-23T02:37:11.232Z,346.00
2023-06-23T02:38:11.226Z,349.00
2023-06-23T02:39:11.230Z,351.00
2023-06-23T02:40:11.251Z,348.00
2023-06-23T02:41:11.240Z,349.00
2023-06-23T02:42:11.252Z,348.00
2023-06-23T02:43:11.246Z,350.00
2023-06-23T02:44:11.238Z,351.00
2023-06-23T02:45:11.248Z,350.00
2023-06-23T02:46:11.364Z,351.00
2023-06-23T02:47:11.257Z,351.00
2023-06-23T02:48:11.326Z,352.00
2023-06-23T02:49:11.257Z,351.00
2023-06-23T02:50:11.264Z,352.00
2023-06-23T02:51:11.241Z,353.00
2023-06-23T02:52:11.261Z,353.00
2023-06-23T02:53:11.242Z,353.00
2023-06-23T02:54:11.250Z,352.00
2023-06-23T02:55:11.232Z,352.00
2023-06-23T02:56:11.253Z,351.00
2023-06-23T02:57:11.241Z,351.00
2023-06-23T02:58:11.235Z,350.00
2023-06-23T02:59:11.298Z,350.00
2023-06-23T03:00:11.303Z,350.00
2023-06-23T03:01:11.357Z,350.00
2023-06-23T03:02:11.380Z,347.00
2023-06-23T03:03:11.382Z,347.00
2023-06-23T03:04:11.310Z,348.00
2023-06-23T03:05:11.303Z,350.00
2023-06-23T03:06:11.301Z,350.00
2023-06-23T03:07:11.358Z,350.00
2023-06-23T03:08:11.395Z,351.00
2023-06-23T03:09:11.461Z,349.00
2023-06-23T03:10:11.536Z,351.00
2023-06-23T03:11:11.547Z,351.00
2023-06-23T03:12:11.578Z,351.00
2023-06-23T03:13:11.596Z,352.00
2023-06-23T03:14:11.571Z,354.00
2023-06-23T03:15:11.559Z,353.00
2023-06-23T03:16:11.583Z,351.00
2023-06-23T03:17:11.629Z,350.00
2023-06-23T03:18:11.675Z,350.00
2023-06-23T03:19:11.668Z,352.00
2023-06-23T03:20:11.680Z,351.00
2023-06-23T03:21:11.690Z,351.00
2023-06-23T03:22:11.692Z,351.00
2023-06-23T03:23:11.723Z,356.00
2023-06-23T03:24:11.701Z,358.00
2023-06-23T03:25:11.705Z,357.00
2023-06-23T03:26:11.749Z,360.00
2023-06-23T03:27:11.709Z,360.00
2023-06-23T03:28:11.702Z,359.00
2023-06-23T03:29:11.706Z,360.00
2023-06-23T03:30:11.709Z,361.00
2023-06-23T03:31:11.705Z,360.00
2023-06-23T03:32:11.692Z,359.00
2023-06-23T03:33:11.701Z,358.00
2023-06-23T03:34:11.678Z,357.00
2023-06-23T03:35:11.714Z,355.00
2023-06-23T03:36:11.689Z,356.00
2023-06-23T03:37:11.689Z,356.00
2023-06-23T03:38:11.708Z,356.00
2023-06-23T03:40:11.694Z,353.00
2023-06-23T03:41:11.710Z,352.00
2023-06-23T03:42:11.704Z,351.00
2023-06-23T03:43:11.676Z,350.00
2023-06-23T03:44:11.696Z,349.00
2023-06-23T03:45:11.694Z,351.00
2023-06-23T03:46:11.720Z,352.00
2023-06-23T03:47:11.691Z,353.00
2023-06-23T03:48:11.683Z,351.00
2023-06-23T03:49:11.705Z,350.00
2023-06-23T03:50:11.665Z,347.00
2023-06-23T03:51:11.708Z,347.00
2023-06-23T03:52:11.701Z,347.00
2023-06-23T03:53:11.694Z,346.00
2023-06-23T03:54:11.729Z,347.00
2023-06-23T03:55:11.695Z,348.00
2023-06-23T03:56:11.701Z,348.00
2023-06-23T03:57:11.683Z,349.00
2023-06-23T03:58:11.685Z,348.00
2023-06-23T03:59:11.676Z,348.00
2023-06-23T04:00:11.680Z,346.00
2023-06-23T04:01:11.676Z,346.00
2023-06-23T04:02:11.788Z,346.00
2023-06-23T04:03:11.757Z,347.00
2023-06-23T04:04:11.781Z,344.00
2023-06-23T04:05:11.708Z,346.00
2023-06-23T04:06:11.679Z,344.00
2023-06-23T04:07:11.702Z,344.00
2023-06-23T04:08:11.668Z,344.00
2023-06-23T04:09:11.693Z,344.00
2023-06-23T04:10:11.695Z,343.00
2023-06-23T04:11:11.669Z,342.00
2023-06-23T04:12:11.746Z,342.00
2023-06-23T04:13:11.697Z,343.00
2023-06-23T04:14:11.703Z,342.00
2023-06-23T04:15:11.693Z,342.00
2023-06-23T04:16:11.738Z,343.00
2023-06-23T04:17:11.698Z,343.00
2023-06-23T04:18:11.784Z,345.00
2023-06-23T04:19:12.814Z,345.00
2023-06-23T04:20:11.758Z,346.00
2023-06-23T04:21:11.758Z,347.00
2023-06-23T04:22:11.754Z,347.00
2023-06-23T04:23:11.753Z,347.00
2023-06-23T04:24:11.874Z,344.00
2023-06-23T04:25:11.786Z,346.00
2023-06-23T04:26:11.789Z,346.00
2023-06-23T04:27:11.809Z,346.00
2023-06-23T04:28:11.783Z,344.00
2023-06-23T04:29:11.791Z,344.00
2023-06-23T04:30:11.779Z,343.00
2023-06-23T04:31:11.891Z,341.00
2023-06-23T04:32:11.796Z,342.00
2023-06-23T04:33:11.811Z,343.00
2023-06-23T04:34:11.820Z,344.00
2023-06-23T04:35:11.827Z,342.00
2023-06-23T04:36:11.816Z,342.00
2023-06-23T04:37:11.833Z,341.00
2023-06-23T04:38:11.820Z,340.00
2023-06-23T04:39:11.864Z,342.00
2023-06-23T04:40:11.849Z,341.00
2023-06-23T04:41:11.857Z,342.00
2023-06-23T04:42:11.859Z,343.00
2023-06-23T04:43:11.952Z,344.00
2023-06-23T04:44:11.881Z,344.00
2023-06-23T04:45:11.871Z,343.00
2023-06-23T04:46:11.913Z,343.00
2023-06-23T04:47:11.874Z,341.00
2023-06-23T04:48:11.899Z,342.00
2023-06-23T04:49:12.000Z,342.00
2023-06-23T04:50:11.912Z,344.00
2023-06-23T04:51:11.905Z,344.00
2023-06-23T04:52:11.933Z,344.00
2023-06-23T04:53:11.932Z,342.00
2023-06-23T04:54:11.978Z,343.00
2023-06-23T04:55:11.990Z,344.00
2023-06-23T04:56:11.941Z,346.00
2023-06-23T04:57:11.973Z,346.00
2023-06-23T04:58:11.998Z,347.00
2023-06-23T04:59:11.988Z,348.00
2023-06-23T05:00:11.992Z,344.00
2023-06-23T05:01:12.059Z,344.00
2023-06-23T05:02:12.053Z,343.00
2023-06-23T05:03:12.076Z,344.00
2023-06-23T05:04:12.035Z,345.00
2023-06-23T05:05:12.024Z,344.00
2023-06-23T05:06:12.063Z,345.00
2023-06-23T05:07:12.065Z,346.00
2023-06-23T05:08:12.103Z,349.00
2023-06-23T05:09:12.125Z,350.00
2023-06-23T05:10:12.170Z,351.00
2023-06-23T05:11:12.202Z,350.00
2023-06-23T05:12:12.198Z,352.00
2023-06-23T05:13:12.219Z,349.00
2023-06-23T05:14:12.222Z,354.00
2023-06-23T05:15:12.256Z,353.00
2023-06-23T05:16:12.287Z,354.00
2023-06-23T05:17:12.314Z,353.00
2023-06-23T05:18:12.384Z,356.00
2023-06-23T05:19:12.399Z,359.00
2023-06-23T05:20:12.408Z,356.00
2023-06-23T05:21:12.429Z,356.00
2023-06-23T05:22:12.482Z,355.00
2023-06-23T05:23:12.510Z,353.00
2023-06-23T05:24:12.560Z,352.00
2023-06-23T05:25:12.618Z,351.00
2023-06-23T05:26:12.670Z,352.00
2023-06-23T05:27:12.777Z,351.00
2023-06-23T05:28:12.807Z,355.00
2023-06-23T05:29:12.834Z,355.00
2023-06-23T05:30:12.878Z,367.00
2023-06-23T05:31:12.964Z,373.00
2023-06-23T05:32:12.934Z,376.00
2023-06-23T05:33:12.975Z,394.00
2023-06-23T05:34:13.009Z,392.00
2023-06-23T05:35:13.078Z,442.00
2023-06-23T05:36:13.136Z,429.00
2023-06-23T05:37:13.152Z,417.00
2023-06-23T05:38:13.232Z,422.00
2023-06-23T05:39:13.290Z,425.00
2023-06-23T05:40:13.375Z,431.00
2023-06-23T05:41:13.424Z,440.00
2023-06-23T05:42:13.434Z,466.00
2023-06-23T05:43:13.463Z,467.00
2023-06-23T05:44:13.789Z,462.00
2023-06-23T05:45:13.514Z,408.00
2023-06-23T05:46:13.622Z,398.00
2023-06-23T05:47:13.674Z,385.00
2023-06-23T05:48:13.755Z,378.00
2023-06-23T05:49:13.766Z,371.00
2023-06-23T05:50:13.733Z,364.00
2023-06-23T05:51:13.793Z,361.00
2023-06-23T05:52:13.807Z,359.00
2023-06-23T05:53:13.842Z,357.00
2023-06-23T05:54:13.879Z,358.00
2023-06-23T05:55:13.959Z,361.00
2023-06-23T05:56:13.981Z,362.00
2023-06-23T05:57:14.039Z,360.00
2023-06-23T05:58:14.120Z,361.00
2023-06-23T05:59:14.203Z,363.00
2023-06-23T06:00:14.253Z,361.00
2023-06-23T06:01:14.298Z,361.00
2023-06-23T06:02:14.285Z,361.00
2023-06-23T06:03:14.382Z,363.00
2023-06-23T06:04:14.336Z,362.00
2023-06-23T06:05:14.367Z,364.00
2023-06-23T06:06:14.365Z,364.00
2023-06-23T06:07:14.371Z,364.00
2023-06-23T06:08:14.439Z,362.00
2023-06-23T06:09:14.482Z,364.00
2023-06-23T06:10:14.516Z,368.00
2023-06-23T06:11:14.483Z,369.00
2023-06-23T06:12:14.501Z,361.00
2023-06-23T06:13:14.514Z,359.00
2023-06-23T06:14:14.523Z,358.00
2023-06-23T06:15:14.549Z,358.00
2023-06-23T06:16:14.571Z,357.00
2023-06-23T06:17:14.610Z,355.00
2023-06-23T06:18:15.658Z,353.00
2023-06-23T06:19:14.633Z,352.00
2023-06-23T06:20:14.666Z,353.00
2023-06-23T06:21:14.675Z,352.00
2023-06-23T06:22:15.292Z,350.00
2023-06-23T06:23:24.650Z,351.00
2023-06-23T06:24:15.738Z,348.00
2023-06-23T06:25:14.801Z,349.00
2023-06-23T06:26:14.718Z,350.00
2023-06-23T06:27:14.715Z,350.00
2023-06-23T06:28:14.690Z,350.00
2023-06-23T06:29:14.700Z,350.00
2023-06-23T06:30:14.693Z,349.00
2023-06-23T06:31:14.821Z,352.00
2023-06-23T06:32:14.679Z,351.00
2023-06-23T06:33:14.688Z,351.00
2023-06-23T06:34:14.798Z,350.00
2023-06-23T06:35:14.686Z,351.00
2023-06-23T06:36:14.690Z,351.00
2023-06-23T06:37:14.731Z,348.00
2023-06-23T06:38:14.736Z,351.00
2023-06-23T06:39:14.757Z,352.00
2023-06-23T06:40:14.764Z,356.00
2023-06-23T06:41:14.804Z,365.00
2023-06-23T06:42:14.867Z,371.00
2023-06-23T06:43:14.905Z,377.00
2023-06-23T06:44:14.962Z,381.00
2023-06-23T06:45:14.979Z,385.00
2023-06-23T06:46:15.010Z,387.00
2023-06-23T06:47:15.007Z,392.00
2023-06-23T06:48:15.039Z,395.00
2023-06-23T06:49:15.045Z,396.00
2023-06-23T06:50:15.060Z,404.00
2023-06-23T06:51:15.060Z,412.00
2023-06-23T06:52:15.115Z,417.00
2023-06-23T06:53:15.109Z,417.00
2023-06-23T06:54:15.570Z,408.00
2023-06-23T06:55:15.108Z,395.00
2023-06-23T06:56:15.082Z,395.00
2023-06-23T06:57:15.116Z,402.00
2023-06-23T06:58:15.103Z,406.00
2023-06-23T06:59:15.136Z,410.00
2023-06-23T07:00:15.109Z,407.00
2023-06-23T07:01:15.279Z,405.00
2023-06-23T07:02:15.269Z,409.00
2023-06-23T07:03:15.303Z,412.00
2023-06-23T07:04:15.213Z,412.00
2023-06-23T07:05:15.264Z,412.00
2023-06-23T07:06:15.609Z,411.00
2023-06-23T07:07:15.323Z,410.00
2023-06-23T07:08:15.457Z,407.00
2023-06-23T07:09:15.802Z,404.00
2023-06-23T07:10:15.537Z,400.00
2023-06-23T07:11:15.570Z,400.00
2023-06-23T07:12:15.627Z,398.00
2023-06-23T07:13:15.690Z,394.00
2023-06-23T07:14:15.676Z,392.00
2023-06-23T07:15:15.732Z,394.00
2023-06-23T07:16:15.718Z,398.00
2023-06-23T07:17:15.754Z,400.00
2023-06-23T07:18:15.771Z,403.00
2023-06-23T07:19:16.283Z,404.00
2023-06-23T07:20:15.813Z,406.00
2023-06-23T07:21:15.870Z,410.00
2023-06-23T07:22:15.906Z,411.00
2023-06-23T07:23:15.981Z,412.00
2023-06-23T07:24:16.321Z,414.00
2023-06-23T07:25:16.097Z,412.00
2023-06-23T07:26:16.154Z,417.00
2023-06-23T07:27:16.155Z,445.00
2023-06-23T07:28:16.203Z,523.00
2023-06-23T07:29:16.217Z,537.00
2023-06-23T07:30:16.330Z,536.00
2023-06-23T07:31:16.431Z,598.00
2023-06-23T07:32:16.410Z,593.00
2023-06-23T07:33:16.431Z,620.00
2023-06-23T07:34:16.821Z,598.00
2023-06-23T07:35:16.535Z,561.00
2023-06-23T07:36:16.508Z,569.00
2023-06-23T07:37:16.549Z,583.00
2023-06-23T07:38:16.546Z,596.00
2023-06-23T07:39:16.570Z,639.00
2023-06-23T07:40:16.513Z,668.00
2023-06-23T07:41:16.522Z,684.00
2023-06-23T07:42:16.543Z,671.00
2023-06-23T07:43:16.588Z,666.00
2023-06-23T07:44:16.856Z,663.00
2023-06-23T07:45:16.668Z,653.00
2023-06-23T07:46:16.783Z,562.00
2023-06-23T07:47:16.863Z,550.00
2023-06-23T07:48:16.903Z,498.00
2023-06-23T07:49:16.954Z,605.00
2023-06-23T07:50:16.977Z,552.00
2023-06-23T07:51:17.045Z,546.00
2023-06-23T07:52:17.099Z,525.00
2023-06-23T07:53:17.191Z,496.00
2023-06-23T07:54:17.256Z,484.00
2023-06-23T07:55:17.325Z,484.00
2023-06-23T07:56:17.342Z,491.00
2023-06-23T07:57:17.410Z,474.00
2023-06-23T07:58:17.478Z,565.00
2023-06-23T07:59:17.495Z,500.00
2023-06-23T08:00:17.553Z,496.00
2023-06-23T08:01:17.609Z,512.00
2023-06-23T08:02:17.714Z,490.00
2023-06-23T08:03:17.842Z,519.00
2023-06-23T08:04:18.021Z,515.00
2023-06-23T08:05:17.848Z,509.00
2023-06-23T08:06:17.850Z,515.00
2023-06-23T08:07:17.874Z,517.00
2023-06-23T08:08:17.964Z,527.00
2023-06-23T08:09:17.990Z,573.00
2023-06-23T08:10:17.993Z,550.00
2023-06-23T08:11:18.041Z,545.00
2023-06-23T08:12:18.045Z,624.00
2023-06-23T08:13:18.097Z,628.00
2023-06-23T08:14:18.097Z,622.00
2023-06-23T08:15:18.131Z,641.00
2023-06-23T08:16:18.236Z,645.00
2023-06-23T08:17:18.210Z,646.00
2023-06-23T08:18:18.289Z,668.00
2023-06-23T08:19:18.344Z,633.00
2023-06-23T08:20:18.329Z,639.00
2023-06-23T08:21:18.439Z,644.00
2023-06-23T08:22:18.428Z,648.00
2023-06-23T08:23:18.524Z,626.00
2023-06-23T08:24:18.544Z,608.00
2023-06-23T08:25:18.623Z,545.00
2023-06-23T08:26:18.679Z,528.00
2023-06-23T08:27:18.701Z,517.00
2023-06-23T08:28:18.810Z,509.00
2023-06-23T08:29:18.815Z,501.00
2023-06-23T08:30:18.882Z,492.00
2023-06-23T08:31:19.041Z,483.00
2023-06-23T08:32:19.066Z,475.00
2023-06-23T08:33:19.035Z,464.00
2023-06-23T08:34:19.144Z,457.00
2023-06-23T08:35:19.260Z,450.00
2023-06-23T08:36:19.208Z,471.00
2023-06-23T08:37:19.279Z,482.00
2023-06-23T08:38:19.321Z,477.00
2023-06-23T08:39:19.436Z,470.00
2023-06-23T08:40:19.427Z,468.00
2023-06-23T08:41:19.490Z,464.00
2023-06-23T08:42:19.566Z,461.00
2023-06-23T08:43:19.603Z,454.00
2023-06-23T08:44:19.854Z,451.00
2023-06-23T08:45:19.736Z,451.00
2023-06-23T08:46:19.821Z,448.00
2023-06-23T08:47:20.017Z,443.00
2023-06-23T08:48:19.951Z,441.00
2023-06-23T08:49:19.956Z,436.00
2023-06-23T08:50:20.071Z,435.00
2023-06-23T08:51:20.057Z,434.00
2023-06-23T08:52:20.110Z,434.00
2023-06-23T08:53:20.179Z,432.00
2023-06-23T08:54:20.272Z,435.00
2023-06-23T08:55:20.283Z,431.00
2023-06-23T08:56:20.353Z,428.00
2023-06-23T08:57:20.396Z,424.00
2023-06-23T08:58:20.513Z,418.00
2023-06-23T08:59:20.511Z,415.00
2023-06-23T09:00:20.567Z,414.00
2023-06-23T09:01:20.651Z,413.00
2023-06-23T09:02:20.712Z,411.00
2023-06-23T09:03:20.768Z,408.00
2023-06-23T09:04:20.813Z,406.00
2023-06-23T09:05:20.831Z,403.00
2023-06-23T09:06:20.871Z,402.00
2023-06-23T09:07:20.924Z,398.00
2023-06-23T09:08:21.008Z,395.00
2023-06-23T09:09:21.015Z,395.00
2023-06-23T09:10:21.076Z,394.00
2023-06-23T09:11:21.212Z,393.00
2023-06-23T09:12:21.171Z,390.00
2023-06-23T09:13:21.270Z,389.00
2023-06-23T09:14:21.282Z,386.00
2023-06-23T09:15:21.407Z,385.00
2023-06-23T09:16:21.396Z,385.00
2023-06-23T09:17:21.462Z,382.00
2023-06-23T09:18:21.498Z,380.00
2023-06-23T09:19:21.537Z,379.00
2023-06-23T09:20:21.599Z,382.00
2023-06-23T09:21:21.730Z,382.00
2023-06-23T09:22:21.740Z,379.00
2023-06-23T09:23:21.766Z,379.00
2023-06-23T09:24:21.848Z,376.00
2023-06-23T09:25:21.878Z,377.00
2023-06-23T09:26:21.936Z,374.00
2023-06-23T09:27:21.970Z,378.00
2023-06-23T09:28:22.053Z,377.00
2023-06-23T09:29:22.113Z,376.00
2023-06-23T09:30:22.365Z,368.00
2023-06-23T09:31:22.277Z,364.00
2023-06-23T09:32:22.250Z,365.00
2023-06-23T09:33:22.310Z,367.00
2023-06-23T09:34:22.909Z,368.00
2023-06-23T09:35:22.422Z,368.00
2023-06-23T09:36:22.504Z,366.00
2023-06-23T09:37:22.490Z,367.00
2023-06-23T09:38:22.607Z,368.00
2023-06-23T09:39:22.650Z,367.00
2023-06-23T09:40:22.742Z,367.00
2023-06-23T09:41:22.757Z,366.00
2023-06-23T09:42:22.769Z,367.00
2023-06-23T09:43:22.789Z,367.00
2023-06-23T09:44:22.895Z,361.00
2023-06-23T09:45:22.904Z,356.00
2023-06-23T09:46:22.956Z,352.00
2023-06-23T09:47:23.047Z,350.00
2023-06-23T09:48:23.055Z,349.00
2023-06-23T09:49:23.127Z,350.00
2023-06-23T09:50:23.199Z,355.00
2023-06-23T09:51:23.224Z,357.00
2023-06-23T09:52:23.292Z,352.00
2023-06-23T09:53:23.391Z,355.00
2023-06-23T09:54:23.420Z,354.00
2023-06-23T09:55:23.486Z,355.00
2023-06-23T09:56:23.515Z,358.00
2023-06-23T09:57:23.554Z,360.00
2023-06-23T09:58:23.645Z,361.00
2023-06-23T09:59:23.722Z,361.00
2023-06-23T10:00:23.768Z,359.00
2023-06-23T10:01:23.833Z,358.00
2023-06-23T10:02:24.016Z,353.00
2023-06-23T10:03:24.003Z,353.00
2023-06-23T10:04:24.079Z,353.00
2023-06-23T10:05:24.031Z,352.00
2023-06-23T10:06:24.113Z,354.00
2023-06-23T10:07:24.155Z,356.00
2023-06-23T10:08:24.193Z,357.00
2023-06-23T10:09:24.252Z,355.00
2023-06-23T10:10:24.326Z,353.00
2023-06-23T10:11:24.346Z,351.00
2023-06-23T10:12:24.350Z,350.00
2023-06-23T10:13:24.367Z,348.00
2023-06-23T10:14:24.411Z,349.00
2023-06-23T10:15:24.416Z,351.00
2023-06-23T10:16:24.486Z,351.00
2023-06-23T10:17:24.597Z,350.00
2023-06-23T10:18:24.575Z,349.00
2023-06-23T10:19:24.610Z,349.00
2023-06-23T10:20:24.752Z,351.00
2023-06-23T10:21:24.748Z,386.00
2023-06-23T10:22:24.838Z,407.00
2023-06-23T10:23:24.903Z,414.00
2023-06-23T10:24:24.945Z,427.00
2023-06-23T10:25:25.376Z,436.00
2023-06-23T10:26:25.110Z,448.00
2023-06-23T10:27:25.102Z,448.00
2023-06-23T10:28:25.144Z,448.00
2023-06-23T10:29:25.199Z,448.00
2023-06-23T10:30:25.250Z,446.00
2023-06-23T10:31:27.199Z,445.00
2023-06-23T10:32:25.421Z,444.00
2023-06-23T10:33:27.394Z,442.00
2023-06-23T10:34:25.273Z,441.00
2023-06-23T10:35:25.274Z,442.00
2023-06-23T10:36:25.292Z,440.00
2023-06-23T10:37:35.642Z,435.00
2023-06-23T10:38:26.657Z,431.00
2023-06-23T10:39:25.238Z,430.00
2023-06-23T10:40:25.247Z,428.00
2023-06-23T10:41:25.253Z,426.00
2023-06-23T10:42:25.381Z,425.00
2023-06-23T10:43:25.248Z,465.00
2023-06-23T10:44:25.399Z,485.00
2023-06-23T10:45:25.236Z,490.00
2023-06-23T10:46:25.195Z,505.00
2023-06-23T10:47:25.228Z,514.00
2023-06-23T10:48:25.187Z,562.00
2023-06-23T10:49:25.589Z,557.00
2023-06-23T10:50:25.419Z,560.00
2023-06-23T10:51:25.282Z,573.00
2023-06-23T10:52:25.322Z,629.00
2023-06-23T10:53:25.310Z,642.00
2023-06-23T10:54:25.326Z,654.00
2023-06-23T10:55:25.381Z,659.00
2023-06-23T10:56:25.401Z,665.00
2023-06-23T10:57:25.380Z,670.00
2023-06-23T10:58:25.337Z,678.00
2023-06-23T10:59:25.391Z,685.00
2023-06-23T11:00:25.468Z,691.00
2023-06-23T11:01:25.451Z,698.00
2023-06-23T11:02:25.585Z,709.00
2023-06-23T11:03:25.497Z,718.00
2023-06-23T11:04:25.509Z,718.00
2023-06-23T11:05:26.435Z,719.00
2023-06-23T11:06:25.453Z,720.00
2023-06-23T11:07:25.466Z,725.00
2023-06-23T11:08:25.472Z,724.00
2023-06-23T11:09:25.452Z,725.00
2023-06-23T11:10:25.470Z,722.00
2023-06-23T11:11:25.513Z,709.00
2023-06-23T11:12:25.468Z,671.00
2023-06-23T11:13:25.513Z,710.00
2023-06-23T11:14:25.443Z,640.00
2023-06-23T11:15:25.934Z,613.00
2023-06-23T11:16:25.471Z,596.00
2023-06-23T11:17:25.501Z,582.00
2023-06-23T11:18:25.510Z,575.00
2023-06-23T11:19:25.457Z,578.00
2023-06-23T11:20:25.490Z,577.00
2023-06-23T11:21:25.487Z,580.00
2023-06-23T11:22:25.477Z,584.00
2023-06-23T11:23:25.510Z,579.00
2023-06-23T11:24:25.508Z,531.00
2023-06-23T11:25:25.566Z,543.00
2023-06-23T11:26:25.531Z,537.00
2023-06-23T11:27:25.505Z,532.00
2023-06-23T11:28:25.518Z,541.00
2023-06-23T11:29:25.636Z,539.00
2023-06-23T11:30:25.661Z,534.00
2023-06-23T11:31:25.703Z,532.00
2023-06-23T11:32:25.548Z,529.00
2023-06-23T11:33:25.620Z,515.00
2023-06-23T11:34:25.608Z,499.00
2023-06-23T11:35:25.598Z,496.00
2023-06-23T11:36:25.567Z,495.00
2023-06-23T11:37:25.578Z,484.00
2023-06-23T11:38:25.618Z,475.00
2023-06-23T11:39:25.613Z,469.00
2023-06-23T11:40:25.592Z,462.00
2023-06-23T11:41:25.612Z,464.00
2023-06-23T11:42:25.665Z,462.00
2023-06-23T11:43:26.735Z,458.00
2023-06-23T11:44:25.604Z,461.00
2023-06-23T11:45:25.912Z,463.00
2023-06-23T11:46:25.660Z,461.00
2023-06-23T11:47:25.699Z,455.00
2023-06-23T11:48:25.608Z,457.00
2023-06-23T11:49:25.645Z,450.00
2023-06-23T11:50:25.641Z,446.00
2023-06-23T11:51:25.643Z,444.00
2023-06-23T11:52:25.634Z,443.00
2023-06-23T11:53:25.633Z,439.00
2023-06-23T11:54:25.653Z,435.00
2023-06-23T11:55:25.625Z,432.00
2023-06-23T11:56:25.639Z,431.00
2023-06-23T11:57:25.798Z,431.00
2023-06-23T11:58:25.697Z,435.00
2023-06-23T11:59:25.959Z,433.00
2023-06-23T12:00:25.657Z,429.00
2023-06-23T12:01:25.674Z,429.00
2023-06-23T12:02:25.748Z,430.00
2023-06-23T12:03:25.753Z,428.00
2023-06-23T12:04:25.812Z,429.00
2023-06-23T12:05:25.685Z,427.00
2023-06-23T12:06:25.806Z,424.00
2023-06-23T12:07:25.696Z,422.00
2023-06-23T12:08:25.680Z,424.00
2023-06-23T12:09:25.686Z,422.00
2023-06-23T12:10:25.948Z,420.00
2023-06-23T12:11:25.717Z,417.00
2023-06-23T12:12:25.715Z,415.00
2023-06-23T12:13:25.706Z,413.00
2023-06-23T12:14:25.707Z,414.00
2023-06-23T12:15:25.687Z,414.00
2023-06-23T12:16:25.704Z,410.00
2023-06-23T12:17:25.720Z,409.00
2023-06-23T12:18:25.718Z,410.00
2023-06-23T12:19:25.720Z,411.00
2023-06-23T12:20:25.743Z,410.00
2023-06-23T12:21:25.750Z,408.00
2023-06-23T12:22:25.711Z,406.00
2023-06-23T12:23:25.755Z,406.00
2023-06-23T12:24:25.708Z,405.00
2023-06-23T12:25:25.773Z,402.00
2023-06-23T12:26:25.729Z,402.00
2023-06-23T12:27:25.684Z,401.00
2023-06-23T12:28:25.707Z,402.00
2023-06-23T12:29:25.763Z,402.00